sensor_id;sensor_type;location;lat;lon;timestamp;pressure;altitude;pressure_sealevel;temperature;humidity
43503;BME280;29098;48.184;16.298;2022-12-29T00:01:15;99588.66;;;-0.85;100.00
43503;BME280;29098;48.184;16.298;2022-12-29T00:03:40;99576.75;;;-0.87;100.00
43503;BME280;29098;48.184;16.298;2022-12-29T00:06:06;99576.34;;;-0.94;100.00
43503;BME280;29098;48.184;16.298;2022-12-29T00:08:31;99577.47;;;-0.85;100.00
43503;BME280;29098;48.184;16.298;2022-12-29T00:11:07;99581.59;;;-1.08;100.00
43503;BME280;29098;48.184;16.298;2022-12-29T00:13:33;99577.25;;;-0.95;100.00
43503;BME280;29098;48.184;16.298;2022-12-29T00:16:17;99582.84;;;-0.88;100.00
43503;BME280;29098;48.184;16.298;2022-12-29T00:18:42;99587.16;;;-1.02;100.00
43503;BME280;29098;48.184;16.298;2022-12-29T00:21:09;99586.78;;;-0.95;100.00
43503;BME280;29098;48.184;16.298;2022-12-29T00:23:55;99590.28;;;-0.97;100.00
43503;BME280;29098;48.184;16.298;2022-12-29T00:26:39;99585.63;;;-1.04;100.00
43503;BME280;29098;48.184;16.298;2022-12-29T00:29:23;99591.22;;;-1.11;100.00
43503;BME280;29098;48.184;16.298;2022-12-29T00:32:09;99593.59;;;-1.07;100.00
43503;BME280;29098;48.184;16.298;2022-12-29T00:34:53;99592.75;;;-1.08;100.00
43503;BME280;29098;48.184;16.298;2022-12-29T00:37:36;99589.44;;;-1.10;100.00
43503;BME280;29098;48.184;16.298;2022-12-29T00:40:21;99589.75;;;-1.15;100.00
43503;BME280;29098;48.184;16.298;2022-12-29T00:43:05;99585.09;;;-1.09;100.00
43503;BME280;29098;48.184;16.298;2022-12-29T00:46:09;99582.25;;;-1.32;100.00
43503;BME280;29098;48.184;16.298;2022-12-29T00:48:34;99589.81;;;-1.29;100.00
43503;BME280;29098;48.184;16.298;2022-12-29T00:51:18;99586.28;;;-1.28;100.00
43503;BME280;29098;48.184;16.298;2022-12-29T00:53:44;99598.66;;;-1.19;100.00
43503;BME280;29098;48.184;16.298;2022-12-29T00:56:09;99606.19;;;-1.16;100.00
43503;BME280;29098;48.184;16.298;2022-12-29T00:58:34;99600.19;;;-1.16;100.00
43503;BME280;29098;48.184;16.298;2022-12-29T01:01:03;99601.75;;;-1.14;100.00
43503;BME280;29098;48.184;16.298;2022-12-29T01:03:29;99603.31;;;-1.11;100.00
43503;BME280;29098;48.184;16.298;2022-12-29T01:05:54;99605.66;;;-1.21;100.00
43503;BME280;29098;48.184;16.298;2022-12-29T01:08:19;99611.72;;;-1.35;100.00
43503;BME280;29098;48.184;16.298;2022-12-29T01:10:45;99610.19;;;-1.25;100.00
43503;BME280;29098;48.184;16.298;2022-12-29T01:13:10;99612.34;;;-1.31;100.00
43503;BME280;29098;48.184;16.298;2022-12-29T01:15:35;99615.03;;;-1.33;100.00
43503;BME280;29098;48.184;16.298;2022-12-29T01:18:01;99612.56;;;-1.34;100.00
43503;BME280;29098;48.184;16.298;2022-12-29T01:20:26;99620.97;;;-1.31;100.00
43503;BME280;29098;48.184;16.298;2022-12-29T01:22:53;99621.97;;;-1.33;100.00
43503;BME280;29098;48.184;16.298;2022-12-29T01:25:19;99612.66;;;-1.36;100.00
43503;BME280;29098;48.184;16.298;2022-12-29T01:27:44;99619.63;;;-1.24;100.00
43503;BME280;29098;48.184;16.298;2022-12-29T01:30:09;99617.44;;;-1.30;100.00
43503;BME280;29098;48.184;16.298;2022-12-29T01:32:35;99622.72;;;-1.31;100.00
43503;BME280;29098;48.184;16.298;2022-12-29T01:35:00;99610.16;;;-1.38;100.00
43503;BME280;29098;48.184;16.298;2022-12-29T01:37:26;99617.97;;;-1.52;100.00
43503;BME280;29098;48.184;16.298;2022-12-29T01:39:51;99609.81;;;-1.46;100.00
43503;BME280;29098;48.184;16.298;2022-12-29T01:42:17;99609.81;;;-1.46;100.00
43503;BME280;29098;48.184;16.298;2022-12-29T01:47:08;99614.28;;;-1.48;100.00
43503;BME280;29098;48.184;16.298;2022-12-29T01:49:33;99613.56;;;-1.50;100.00
43503;BME280;29098;48.184;16.298;2022-12-29T01:52:00;99613.63;;;-1.52;100.00
43503;BME280;29098;48.184;16.298;2022-12-29T01:54:28;99605.91;;;-1.39;100.00
43503;BME280;29098;48.184;16.298;2022-12-29T01:56:56;99605.84;;;-1.37;100.00
43503;BME280;29098;48.184;16.298;2022-12-29T01:59:24;99596.41;;;-1.38;100.00
43503;BME280;29098;48.184;16.298;2022-12-29T02:01:52;99594.69;;;-1.52;100.00
43503;BME280;29098;48.184;16.298;2022-12-29T02:04:17;99584.56;;;-1.55;100.00
43503;BME280;29098;48.184;16.298;2022-12-29T02:06:48;99579.38;;;-1.55;100.00
43503;BME280;29098;48.184;16.298;2022-12-29T02:09:16;99583.13;;;-1.46;100.00
43503;BME280;29098;48.184;16.298;2022-12-29T02:11:41;99582.84;;;-1.42;100.00
43503;BME280;29098;48.184;16.298;2022-12-29T02:14:10;99583.91;;;-1.31;100.00
43503;BME280;29098;48.184;16.298;2022-12-29T02:22:17;99574.84;;;-1.52;100.00
43503;BME280;29098;48.184;16.298;2022-12-29T02:24:57;99567.91;;;-1.51;100.00
43503;BME280;29098;48.184;16.298;2022-12-29T02:27:31;99560.16;;;-1.51;100.00
43503;BME280;29098;48.184;16.298;2022-12-29T02:30:03;99557.06;;;-1.56;100.00
43503;BME280;29098;48.184;16.298;2022-12-29T02:32:31;99557.19;;;-1.45;100.00
43503;BME280;29098;48.184;16.298;2022-12-29T02:35:01;99557.56;;;-1.51;100.00
43503;BME280;29098;48.184;16.298;2022-12-29T02:37:35;99559.72;;;-1.58;100.00
43503;BME280;29098;48.184;16.298;2022-12-29T02:42:36;99558.63;;;-1.54;100.00
43503;BME280;29098;48.184;16.298;2022-12-29T02:45:05;99549.41;;;-1.45;100.00
43503;BME280;29098;48.184;16.298;2022-12-29T02:50:21;99549.41;;;-1.45;100.00
43503;BME280;29098;48.184;16.298;2022-12-29T02:52:52;99557.81;;;-1.41;100.00
43503;BME280;29098;48.184;16.298;2022-12-29T02:55:22;99555.56;;;-1.60;100.00
43503;BME280;29098;48.184;16.298;2022-12-29T02:57:47;99552.06;;;-1.59;100.00
43503;BME280;29098;48.184;16.298;2022-12-29T03:00:16;99554.75;;;-1.61;100.00
43503;BME280;29098;48.184;16.298;2022-12-29T03:10:38;99563.03;;;-1.56;100.00
43503;BME280;29098;48.184;16.298;2022-12-29T03:21:30;99549.06;;;-1.66;100.00
43503;BME280;29098;48.184;16.298;2022-12-29T03:24:17;99552.34;;;-1.64;100.00
43503;BME280;29098;48.184;16.298;2022-12-29T03:26:43;99557.34;;;-1.61;100.00
43503;BME280;29098;48.184;16.298;2022-12-29T03:29:10;99551.03;;;-1.57;100.00
43503;BME280;29098;48.184;16.298;2022-12-29T03:31:37;99556.41;;;-1.60;100.00
43503;BME280;29098;48.184;16.298;2022-12-29T03:34:03;99562.75;;;-1.51;100.00
43503;BME280;29098;48.184;16.298;2022-12-29T03:36:30;99561.75;;;-1.63;100.00
43503;BME280;29098;48.184;16.298;2022-12-29T03:39:04;99555.97;;;-1.67;100.00
43503;BME280;29098;48.184;16.298;2022-12-29T03:41:33;99556.56;;;-1.76;100.00
43503;BME280;29098;48.184;16.298;2022-12-29T03:43:59;99557.72;;;-1.67;100.00
43503;BME280;29098;48.184;16.298;2022-12-29T03:46:24;99557.81;;;-1.69;100.00
43503;BME280;29098;48.184;16.298;2022-12-29T03:48:50;99553.59;;;-1.70;100.00
43503;BME280;29098;48.184;16.298;2022-12-29T03:51:15;99557.00;;;-1.69;100.00
43503;BME280;29098;48.184;16.298;2022-12-29T03:53:40;99565.41;;;-1.66;100.00
43503;BME280;29098;48.184;16.298;2022-12-29T03:56:06;99567.91;;;-1.79;100.00
43503;BME280;29098;48.184;16.298;2022-12-29T03:58:31;99568.88;;;-1.67;100.00
43503;BME280;29098;48.184;16.298;2022-12-29T04:00:56;99565.03;;;-1.74;100.00
43503;BME280;29098;48.184;16.298;2022-12-29T04:03:22;99564.31;;;-1.76;100.00
43503;BME280;29098;48.184;16.298;2022-12-29T04:05:47;99563.19;;;-1.72;100.00
43503;BME280;29098;48.184;16.298;2022-12-29T04:08:12;99565.28;;;-1.64;100.00
43503;BME280;29098;48.184;16.298;2022-12-29T04:10:38;99559.97;;;-1.75;100.00
43503;BME280;29098;48.184;16.298;2022-12-29T04:13:03;99555.63;;;-1.75;100.00
43503;BME280;29098;48.184;16.298;2022-12-29T04:15:28;99558.41;;;-1.78;100.00
43503;BME280;29098;48.184;16.298;2022-12-29T04:17:54;99568.25;;;-1.70;100.00
43503;BME280;29098;48.184;16.298;2022-12-29T04:20:19;99563.00;;;-1.69;100.00
43503;BME280;29098;48.184;16.298;2022-12-29T04:23:04;99564.41;;;-1.77;100.00
43503;BME280;29098;48.184;16.298;2022-12-29T04:25:33;99568.25;;;-1.70;100.00
43503;BME280;29098;48.184;16.298;2022-12-29T04:27:58;99559.50;;;-1.82;100.00
43503;BME280;29098;48.184;16.298;2022-12-29T04:30:23;99559.63;;;-1.84;100.00
43503;BME280;29098;48.184;16.298;2022-12-29T04:32:49;99570.31;;;-1.75;100.00
43503;BME280;29098;48.184;16.298;2022-12-29T04:35:14;99562.09;;;-1.82;100.00
43503;BME280;29098;48.184;16.298;2022-12-29T04:37:40;99559.22;;;-1.77;100.00
43503;BME280;29098;48.184;16.298;2022-12-29T04:40:05;99568.75;;;-1.78;100.00
43503;BME280;29098;48.184;16.298;2022-12-29T04:42:31;99575.03;;;-1.82;100.00
43503;BME280;29098;48.184;16.298;2022-12-29T04:44:56;99573.75;;;-1.89;100.00
43503;BME280;29098;48.184;16.298;2022-12-29T04:47:21;99573.38;;;-1.83;100.00
43503;BME280;29098;48.184;16.298;2022-12-29T04:49:47;99565.13;;;-2.03;100.00
43503;BME280;29098;48.184;16.298;2022-12-29T04:52:12;99564.34;;;-1.90;100.00
43503;BME280;29098;48.184;16.298;2022-12-29T04:54:39;99565.84;;;-2.01;100.00
43503;BME280;29098;48.184;16.298;2022-12-29T04:57:04;99562.88;;;-1.95;100.00
43503;BME280;29098;48.184;16.298;2022-12-29T04:59:30;99557.09;;;-1.98;100.00
43503;BME280;29098;48.184;16.298;2022-12-29T05:01:55;99558.66;;;-1.96;100.00
43503;BME280;29098;48.184;16.298;2022-12-29T05:04:20;99557.50;;;-1.91;100.00
43503;BME280;29098;48.184;16.298;2022-12-29T05:06:46;99558.09;;;-2.01;100.00
43503;BME280;29098;48.184;16.298;2022-12-29T05:09:11;99554.50;;;-1.98;100.00
43503;BME280;29098;48.184;16.298;2022-12-29T05:11:36;99560.75;;;-2.02;100.00
43503;BME280;29098;48.184;16.298;2022-12-29T05:14:02;99558.53;;;-1.94;100.00
43503;BME280;29098;48.184;16.298;2022-12-29T05:16:27;99565.13;;;-2.03;100.00
43503;BME280;29098;48.184;16.298;2022-12-29T05:18:52;99565.00;;;-2.01;100.00
43503;BME280;29098;48.184;16.298;2022-12-29T05:21:18;99557.16;;;-2.00;100.00
43503;BME280;29098;48.184;16.298;2022-12-29T05:23:43;99561.22;;;-1.96;100.00
43503;BME280;29098;48.184;16.298;2022-12-29T05:26:08;99556.88;;;-1.95;100.00
43503;BME280;29098;48.184;16.298;2022-12-29T05:28:34;99560.91;;;-2.18;100.00
43503;BME280;29098;48.184;16.298;2022-12-29T05:30:59;99555.53;;;-2.15;100.00
43503;BME280;29098;48.184;16.298;2022-12-29T05:33:24;99566.13;;;-2.05;100.00
43503;BME280;29098;48.184;16.298;2022-12-29T05:35:50;99558.84;;;-2.13;100.00
43503;BME280;29098;48.184;16.298;2022-12-29T05:38:15;99568.25;;;-2.12;100.00
43503;BME280;29098;48.184;16.298;2022-12-29T05:40:40;99558.13;;;-2.15;100.00
43503;BME280;29098;48.184;16.298;2022-12-29T05:43:05;99565.13;;;-2.03;100.00
43503;BME280;29098;48.184;16.298;2022-12-29T05:45:31;99572.13;;;-2.05;100.00
43503;BME280;29098;48.184;16.298;2022-12-29T05:47:56;99570.28;;;-2.03;100.00
43503;BME280;29098;48.184;16.298;2022-12-29T05:50:22;99569.00;;;-2.10;100.00
43503;BME280;29098;48.184;16.298;2022-12-29T05:52:47;99568.38;;;-2.14;100.00
43503;BME280;29098;48.184;16.298;2022-12-29T05:55:12;99566.78;;;-2.02;100.00
43503;BME280;29098;48.184;16.298;2022-12-29T05:57:38;99570.03;;;-2.13;100.00
43503;BME280;29098;48.184;16.298;2022-12-29T06:00:04;99565.13;;;-2.03;100.00
43503;BME280;29098;48.184;16.298;2022-12-29T06:02:30;99565.59;;;-2.11;100.00
43503;BME280;29098;48.184;16.298;2022-12-29T06:04:55;99564.66;;;-2.10;100.00
43503;BME280;29098;48.184;16.298;2022-12-29T06:07:20;99573.34;;;-2.11;100.00
43503;BME280;29098;48.184;16.298;2022-12-29T06:09:46;99566.78;;;-2.02;100.00
43503;BME280;29098;48.184;16.298;2022-12-29T06:12:11;99576.38;;;-2.04;100.00
43503;BME280;29098;48.184;16.298;2022-12-29T06:14:36;99576.19;;;-2.01;100.00
43503;BME280;29098;48.184;16.298;2022-12-29T06:17:02;99571.38;;;-1.93;100.00
43503;BME280;29098;48.184;16.298;2022-12-29T06:19:27;99561.88;;;-1.92;100.00
43503;BME280;29098;48.184;16.298;2022-12-29T06:21:52;99575.22;;;-1.85;100.00
43503;BME280;29098;48.184;16.298;2022-12-29T06:24:18;99572.25;;;-1.79;100.00
43503;BME280;29098;48.184;16.298;2022-12-29T06:26:44;99575.13;;;-1.84;100.00
43503;BME280;29098;48.184;16.298;2022-12-29T06:29:09;99573.22;;;-1.95;100.00
43503;BME280;29098;48.184;16.298;2022-12-29T06:31:34;99578.75;;;-1.86;100.00
43503;BME280;29098;48.184;16.298;2022-12-29T06:34:00;99573.47;;;-1.85;100.00
43503;BME280;29098;48.184;16.298;2022-12-29T06:36:25;99571.28;;;-1.91;100.00
43503;BME280;29098;48.184;16.298;2022-12-29T06:38:50;99573.56;;;-1.86;100.00
43503;BME280;29098;48.184;16.298;2022-12-29T06:41:17;99577.81;;;-1.85;100.00
43503;BME280;29098;48.184;16.298;2022-12-29T06:43:43;99589.81;;;-1.84;100.00
43503;BME280;29098;48.184;16.298;2022-12-29T06:46:08;99582.13;;;-1.86;100.00
43503;BME280;29098;48.184;16.298;2022-12-29T06:48:33;99591.47;;;-1.83;100.00
43503;BME280;29098;48.184;16.298;2022-12-29T06:50:59;99599.94;;;-1.81;100.00
43503;BME280;29098;48.184;16.298;2022-12-29T06:53:24;99605.75;;;-1.77;100.00
43503;BME280;29098;48.184;16.298;2022-12-29T06:55:49;99600.84;;;-1.68;100.00
43503;BME280;29098;48.184;16.298;2022-12-29T06:58:15;99614.44;;;-1.51;100.00
43503;BME280;29098;48.184;16.298;2022-12-29T07:00:40;99609.69;;;-1.57;100.00
43503;BME280;29098;48.184;16.298;2022-12-29T07:03:06;99613.28;;;-1.60;100.00
43503;BME280;29098;48.184;16.298;2022-12-29T07:05:31;99612.66;;;-1.63;100.00
43503;BME280;29098;48.184;16.298;2022-12-29T07:07:57;99616.34;;;-1.68;100.00
43503;BME280;29098;48.184;16.298;2022-12-29T07:10:23;99607.66;;;-1.67;100.00
43503;BME280;29098;48.184;16.298;2022-12-29T07:12:48;99612.44;;;-1.60;100.00
43503;BME280;29098;48.184;16.298;2022-12-29T07:15:13;99613.81;;;-1.55;100.00
43503;BME280;29098;48.184;16.298;2022-12-29T07:17:39;99610.13;;;-1.50;100.00
43503;BME280;29098;48.184;16.298;2022-12-29T07:20:04;99609.06;;;-1.33;100.00
43503;BME280;29098;48.184;16.298;2022-12-29T07:22:30;99613.19;;;-1.31;100.00
43503;BME280;29098;48.184;16.298;2022-12-29T07:24:55;99602.88;;;-1.18;100.00
43503;BME280;29098;48.184;16.298;2022-12-29T07:27:21;99600.81;;;-1.13;100.00
43503;BME280;29098;48.184;16.298;2022-12-29T07:29:46;99601.88;;;-1.02;100.00
43503;BME280;29098;48.184;16.298;2022-12-29T07:32:11;99602.50;;;-0.99;100.00
43503;BME280;29098;48.184;16.298;2022-12-29T07:34:37;99602.91;;;-1.05;100.00
43503;BME280;29098;48.184;16.298;2022-12-29T07:37:04;99596.88;;;-1.18;100.00
43503;BME280;29098;48.184;16.298;2022-12-29T07:39:29;99610.03;;;-1.21;100.00
43503;BME280;29098;48.184;16.298;2022-12-29T07:41:55;99612.91;;;-1.26;100.00
43503;BME280;29098;48.184;16.298;2022-12-29T07:44:20;99609.06;;;-1.33;100.00
43503;BME280;29098;48.184;16.298;2022-12-29T07:46:45;99600.78;;;-1.26;100.00
43503;BME280;29098;48.184;16.298;2022-12-29T07:49:10;99612.78;;;-1.25;100.00
43503;BME280;29098;48.184;16.298;2022-12-29T07:51:36;99606.44;;;-1.06;100.00
43503;BME280;29098;48.184;16.298;2022-12-29T07:54:02;99600.22;;;-1.03;100.00
43503;BME280;29098;48.184;16.298;2022-12-29T07:56:27;99603.31;;;-1.11;100.00
43503;BME280;29098;48.184;16.298;2022-12-29T07:58:52;99604.81;;;-0.94;100.00
43503;BME280;29098;48.184;16.298;2022-12-29T08:01:18;99602.72;;;-0.89;100.00
43503;BME280;29098;48.184;16.298;2022-12-29T08:03:43;99609.44;;;-0.86;100.00
43503;BME280;29098;48.184;16.298;2022-12-29T08:06:09;99608.34;;;-0.82;100.00
43503;BME280;29098;48.184;16.298;2022-12-29T08:08:34;99604.72;;;-0.79;100.00
43503;BME280;29098;48.184;16.298;2022-12-29T08:11:00;99613.19;;;-0.77;100.00
43503;BME280;29098;48.184;16.298;2022-12-29T08:13:25;99612.69;;;-0.70;100.00
43503;BME280;29098;48.184;16.298;2022-12-29T08:15:50;99612.72;;;-0.57;100.00
43503;BME280;29098;48.184;16.298;2022-12-29T08:18:15;99607.09;;;-0.50;100.00
43503;BME280;29098;48.184;16.298;2022-12-29T08:20:41;99603.59;;;-0.49;100.00
43503;BME280;29098;48.184;16.298;2022-12-29T08:23:06;99603.59;;;-0.49;100.00
43503;BME280;29098;48.184;16.298;2022-12-29T08:25:31;99606.69;;;-0.44;100.00
43503;BME280;29098;48.184;16.298;2022-12-29T08:27:57;99607.50;;;-0.31;100.00
43503;BME280;29098;48.184;16.298;2022-12-29T08:30:22;99591.56;;;-0.37;100.00
43503;BME280;29098;48.184;16.298;2022-12-29T08:32:47;99601.31;;;-0.41;100.00
43503;BME280;29098;48.184;16.298;2022-12-29T08:35:13;99601.72;;;-0.60;100.00
43503;BME280;29098;48.184;16.298;2022-12-29T08:37:38;99610.41;;;-0.35;100.00
43503;BME280;29098;48.184;16.298;2022-12-29T08:40:03;99598.38;;;-0.23;100.00
43503;BME280;29098;48.184;16.298;2022-12-29T08:42:30;99600.97;;;-0.23;100.00
43503;BME280;29098;48.184;16.298;2022-12-29T08:44:59;99596.75;;;-0.37;100.00
43503;BME280;29098;48.184;16.298;2022-12-29T08:47:25;99603.56;;;-0.23;100.00
43503;BME280;29098;48.184;16.298;2022-12-29T08:49:50;99600.25;;;-0.25;100.00
43503;BME280;29098;48.184;16.298;2022-12-29T08:52:15;99599.50;;;-0.28;100.00
43503;BME280;29098;48.184;16.298;2022-12-29T08:54:41;99598.81;;;-0.30;100.00
43503;BME280;29098;48.184;16.298;2022-12-29T08:57:06;99606.34;;;-0.13;100.00
43503;BME280;29098;48.184;16.298;2022-12-29T08:59:31;99606.03;;;-0.09;100.00
43503;BME280;29098;48.184;16.298;2022-12-29T09:01:57;99594.44;;;-0.16;100.00
43503;BME280;29098;48.184;16.298;2022-12-29T09:04:22;99589.91;;;-0.25;100.00
43503;BME280;29098;48.184;16.298;2022-12-29T09:06:48;99589.47;;;-0.19;100.00
43503;BME280;29098;48.184;16.298;2022-12-29T09:09:14;99591.00;;;-0.04;100.00
43503;BME280;29098;48.184;16.298;2022-12-29T09:11:39;99590.06;;;-0.03;100.00
43503;BME280;29098;48.184;16.298;2022-12-29T09:14:04;99585.81;;;-0.04;100.00
43503;BME280;29098;48.184;16.298;2022-12-29T09:16:30;99583.53;;;-0.08;100.00
43503;BME280;29098;48.184;16.298;2022-12-29T09:18:55;99581.44;;;-0.03;100.00
43503;BME280;29098;48.184;16.298;2022-12-29T09:21:20;99577.78;;;0.12;100.00
43503;BME280;29098;48.184;16.298;2022-12-29T09:23:46;99576.66;;;0.04;100.00
43503;BME280;29098;48.184;16.298;2022-12-29T09:26:12;99564.63;;;0.16;100.00
43503;BME280;29098;48.184;16.298;2022-12-29T09:28:38;99567.31;;;0.14;100.00
43503;BME280;29098;48.184;16.298;2022-12-29T09:31:03;99564.72;;;0.14;100.00
43503;BME280;29098;48.184;16.298;2022-12-29T09:33:29;99572.81;;;0.09;100.00
43503;BME280;29098;48.184;16.298;2022-12-29T09:35:55;99564.75;;;0.01;100.00
43503;BME280;29098;48.184;16.298;2022-12-29T09:38:21;99563.69;;;0.04;100.00
43503;BME280;29098;48.184;16.298;2022-12-29T09:40:54;99559.72;;;-0.13;100.00
43503;BME280;29098;48.184;16.298;2022-12-29T09:45:47;99557.16;;;-0.26;100.00
43503;BME280;29098;48.184;16.298;2022-12-29T09:48:16;99562.31;;;-0.13;100.00
43503;BME280;29098;48.184;16.298;2022-12-29T09:50:44;99562.91;;;-0.10;100.00
43503;BME280;29098;48.184;16.298;2022-12-29T09:53:36;99556.25;;;-0.01;100.00
43503;BME280;29098;48.184;16.298;2022-12-29T09:56:02;99557.09;;;-0.01;100.00
43503;BME280;29098;48.184;16.298;2022-12-29T10:03:51;99553.72;;;0.10;100.00
43503;BME280;29098;48.184;16.298;2022-12-29T10:09:04;99558.63;;;0.02;100.00
43503;BME280;29098;48.184;16.298;2022-12-29T10:11:56;99553.78;;;0.22;100.00
43503;BME280;29098;48.184;16.298;2022-12-29T10:14:29;99544.41;;;0.08;100.00
43503;BME280;29098;48.184;16.298;2022-12-29T10:24:16;99546.25;;;0.19;100.00
43503;BME280;29098;48.184;16.298;2022-12-29T10:26:44;99549.94;;;0.28;100.00
43503;BME280;29098;48.184;16.298;2022-12-29T10:31:56;99550.25;;;0.23;100.00
43503;BME280;29098;48.184;16.298;2022-12-29T10:34:27;99544.16;;;0.24;100.00
43503;BME280;29098;48.184;16.298;2022-12-29T10:36:57;99546.97;;;0.45;100.00
43503;BME280;29098;48.184;16.298;2022-12-29T10:39:28;99538.47;;;0.19;100.00
43503;BME280;29098;48.184;16.298;2022-12-29T10:42:09;99540.72;;;0.23;100.00
43503;BME280;29098;48.184;16.298;2022-12-29T10:44:36;99543.75;;;0.17;100.00
43503;BME280;29098;48.184;16.298;2022-12-29T10:47:02;99539.78;;;0.24;100.00
43503;BME280;29098;48.184;16.298;2022-12-29T10:49:30;99537.59;;;0.31;100.00
43503;BME280;29098;48.184;16.298;2022-12-29T10:51:57;99540.66;;;0.36;100.00
43503;BME280;29098;48.184;16.298;2022-12-29T10:54:25;99542.44;;;0.36;100.00
43503;BME280;29098;48.184;16.298;2022-12-29T10:57:01;99535.03;;;0.18;100.00
43503;BME280;29098;48.184;16.298;2022-12-29T10:59:33;99532.94;;;0.23;100.00
43503;BME280;29098;48.184;16.298;2022-12-29T11:02:11;99535.19;;;0.28;100.00
43503;BME280;29098;48.184;16.298;2022-12-29T11:07:09;99519.97;;;0.23;100.00
43503;BME280;29098;48.184;16.298;2022-12-29T11:09:36;99522.81;;;0.20;100.00
43503;BME280;29098;48.184;16.298;2022-12-29T11:17:54;99517.91;;;0.40;100.00
43503;BME280;29098;48.184;16.298;2022-12-29T11:22:55;99521.69;;;0.36;100.00
43503;BME280;29098;48.184;16.298;2022-12-29T11:25:21;99514.19;;;0.44;100.00
43503;BME280;29098;48.184;16.298;2022-12-29T11:28:31;99526.56;;;0.52;100.00
43503;BME280;29098;48.184;16.298;2022-12-29T11:30:32;99521.53;;;0.50;100.00
43503;BME280;29098;48.184;16.298;2022-12-29T11:32:57;99518.69;;;0.53;100.00
43503;BME280;29098;48.184;16.298;2022-12-29T11:35:30;99511.34;;;0.47;100.00
43503;BME280;29098;48.184;16.298;2022-12-29T11:37:56;99514.38;;;0.41;100.00
43503;BME280;29098;48.184;16.298;2022-12-29T11:40:22;99523.41;;;0.24;100.00
43503;BME280;29098;48.184;16.298;2022-12-29T11:42:48;99515.78;;;0.34;100.00
43503;BME280;29098;48.184;16.298;2022-12-29T11:45:16;99513.56;;;0.40;100.00
43503;BME280;29098;48.184;16.298;2022-12-29T11:47:44;99515.44;;;0.38;100.00
43503;BME280;29098;48.184;16.298;2022-12-29T11:50:15;99507.09;;;0.46;100.00
43503;BME280;29098;48.184;16.298;2022-12-29T11:52:41;99510.84;;;0.42;100.00
43503;BME280;29098;48.184;16.298;2022-12-29T11:55:13;99500.25;;;0.45;100.00
43503;BME280;29098;48.184;16.298;2022-12-29T11:57:41;99499.75;;;0.40;100.00
43503;BME280;29098;48.184;16.298;2022-12-29T12:00:15;99492.41;;;0.22;100.00
43503;BME280;29098;48.184;16.298;2022-12-29T12:02:42;99489.50;;;0.38;100.00
43503;BME280;29098;48.184;16.298;2022-12-29T12:07:39;99487.06;;;0.48;100.00
43503;BME280;29098;48.184;16.298;2022-12-29T12:10:05;99491.09;;;0.52;100.00
43503;BME280;29098;48.184;16.298;2022-12-29T12:12:38;99490.44;;;0.37;100.00
43503;BME280;29098;48.184;16.298;2022-12-29T12:15:05;99496.72;;;0.46;100.00
43503;BME280;29098;48.184;16.298;2022-12-29T12:17:31;99491.78;;;0.43;100.00
43503;BME280;29098;48.184;16.298;2022-12-29T12:20:06;99490.66;;;0.59;100.00
43503;BME280;29098;48.184;16.298;2022-12-29T12:22:41;99485.72;;;0.67;100.00
43503;BME280;29098;48.184;16.298;2022-12-29T12:27:43;99483.88;;;0.45;100.00
43503;BME280;29098;48.184;16.298;2022-12-29T12:30:23;99476.66;;;0.37;100.00
43503;BME280;29098;48.184;16.298;2022-12-29T12:33:02;99477.38;;;0.39;100.00
43503;BME280;29098;48.184;16.298;2022-12-29T12:38:13;99479.19;;;0.61;100.00
43503;BME280;29098;48.184;16.298;2022-12-29T12:43:25;99467.56;;;0.78;100.00
43503;BME280;29098;48.184;16.298;2022-12-29T12:48:44;99464.53;;;1.07;100.00
43503;BME280;29098;48.184;16.298;2022-12-29T12:51:15;99467.09;;;0.96;100.00
43503;BME280;29098;48.184;16.298;2022-12-29T12:53:55;99473.72;;;1.00;100.00
43503;BME280;29098;48.184;16.298;2022-12-29T13:01:52;99464.88;;;1.03;100.00
43503;BME280;29098;48.184;16.298;2022-12-29T13:04:40;99458.63;;;1.28;100.00
43503;BME280;29098;48.184;16.298;2022-12-29T13:17:29;99459.47;;;1.40;100.00
43503;BME280;29098;48.184;16.298;2022-12-29T13:35:53;99468.44;;;1.47;100.00
43503;BME280;29098;48.184;16.298;2022-12-29T13:38:26;99465.59;;;1.39;100.00
43503;BME280;29098;48.184;16.298;2022-12-29T13:43:40;99474.69;;;1.45;100.00
43503;BME280;29098;48.184;16.298;2022-12-29T13:46:18;99481.06;;;1.41;100.00
43503;BME280;29098;48.184;16.298;2022-12-29T13:48:49;99477.28;;;1.45;100.00
43503;BME280;29098;48.184;16.298;2022-12-29T13:51:17;99474.44;;;1.48;100.00
43503;BME280;29098;48.184;16.298;2022-12-29T13:54:05;99477.84;;;1.37;100.00
43503;BME280;29098;48.184;16.298;2022-12-29T13:56:52;99485.78;;;1.47;100.00
43503;BME280;29098;48.184;16.298;2022-12-29T13:59:43;99482.25;;;1.36;100.00
43503;BME280;29098;48.184;16.298;2022-12-29T14:02:26;99478.22;;;1.21;100.00
43503;BME280;29098;48.184;16.298;2022-12-29T14:05:01;99475.50;;;1.34;100.00
43503;BME280;29098;48.184;16.298;2022-12-29T14:07:28;99469.59;;;1.43;100.00
43503;BME280;29098;48.184;16.298;2022-12-29T14:09:54;99474.91;;;1.42;100.00
43503;BME280;29098;48.184;16.298;2022-12-29T14:15:41;99478.69;;;1.38;100.00
43503;BME280;29098;48.184;16.298;2022-12-29T14:17:59;99481.28;;;1.38;100.00
43503;BME280;29098;48.184;16.298;2022-12-29T14:20:26;99476.34;;;1.46;100.00
43503;BME280;29098;48.184;16.298;2022-12-29T14:23:35;99477.75;;;1.39;100.00
43503;BME280;29098;48.184;16.298;2022-12-29T14:28:29;99481.19;;;1.39;100.00
43503;BME280;29098;48.184;16.298;2022-12-29T14:30:56;99482.94;;;1.39;100.00
43503;BME280;29098;48.184;16.298;2022-12-29T14:33:22;99489.81;;;1.51;100.00
43503;BME280;29098;48.184;16.298;2022-12-29T14:35:48;99488.72;;;1.42;100.00
43503;BME280;29098;48.184;16.298;2022-12-29T14:38:27;99479.78;;;1.46;100.00
43503;BME280;29098;48.184;16.298;2022-12-29T14:41:15;99482.44;;;1.56;100.00
43503;BME280;29098;48.184;16.298;2022-12-29T14:43:39;99487.56;;;1.35;100.00